Time;durP1;ratioP1;P1;durP2;ratioP2;P2;SDS_P1;SDS_P2;PMS_P1;PMS_P2;Temp;Humidity;BMP_temperature;BMP_pressure;BME280_temperature;BME280_humidity;BME280_pressure;Samples;Min_cycle;Max_cycle;Signal;HPM_P1;HPM_P2
2023/02/11 00:02:04;;;;;;;19.05;11.43;;;6.00;99.90;;;;;;5114038;28;20028;-35
2023/02/11 00:04:30;;;;;;;18.13;10.73;;;6.10;99.90;;;;;;5114298;28;20553;-37
2023/02/11 00:06:56;;;;;;;19.00;11.30;;;6.30;99.90;;;;;;5114535;28;20023;-37
2023/02/11 00:09:22;;;;;;;16.08;10.75;;;6.50;99.90;;;;;;5114292;28;20047;-34
2023/02/11 00:11:48;;;;;;;18.20;11.18;;;6.70;99.90;;;;;;5114236;28;20027;-34
2023/02/11 00:14:13;;;;;;;17.60;11.05;;;6.70;99.90;;;;;;5113973;28;20028;-36
2023/02/11 00:16:39;;;;;;;17.42;11.52;;;6.80;99.90;;;;;;5113650;28;20540;-36
2023/02/11 00:19:05;;;;;;;18.20;11.27;;;6.70;99.90;;;;;;5113712;27;20061;-40
2023/02/11 00:21:32;;;;;;;15.77;10.32;;;6.60;99.90;;;;;;5113474;28;20100;-41
2023/02/11 00:23:58;;;;;;;19.67;10.90;;;6.50;99.90;;;;;;5113656;28;20024;-40
2023/02/11 00:26:28;;;;;;;18.08;11.20;;;6.50;99.90;;;;;;5113359;28;20022;-39
2023/02/11 00:28:54;;;;;;;19.38;11.88;;;6.40;99.90;;;;;;5113728;28;20027;-41
2023/02/11 00:31:21;;;;;;;19.73;11.10;;;6.30;99.90;;;;;;5113505;28;20031;-31
2023/02/11 00:33:47;;;;;;;18.65;10.77;;;6.30;99.90;;;;;;5113735;28;20027;-40
2023/02/11 00:36:16;;;;;;;17.92;11.55;;;6.30;99.90;;;;;;5112599;28;20396;-40
2023/02/11 00:38:43;;;;;;;16.02;11.00;;;6.20;99.90;;;;;;5113714;28;20469;-42
2023/02/11 00:41:09;;;;;;;18.33;11.48;;;6.10;99.90;;;;;;5114229;28;20031;-37
2023/02/11 00:43:35;;;;;;;19.65;11.63;;;6.20;99.90;;;;;;5113772;28;20024;-36
2023/02/11 00:46:01;;;;;;;17.70;11.23;;;6.10;99.90;;;;;;5113135;28;20431;-38
2023/02/11 00:48:27;;;;;;;16.95;11.30;;;6.10;99.90;;;;;;5113562;28;20024;-41
2023/02/11 00:50:53;;;;;;;18.75;10.77;;;6.10;99.90;;;;;;5113718;27;20061;-41
2023/02/11 00:53:18;;;;;;;17.10;11.20;;;6.10;99.90;;;;;;5113484;28;20096;-41
2023/02/11 00:55:44;;;;;;;19.17;11.38;;;6.10;99.90;;;;;;5113158;28;20485;-39
2023/02/11 00:58:10;;;;;;;15.95;10.95;;;6.00;99.90;;;;;;5113525;28;20089;-41
2023/02/11 01:00:35;;;;;;;21.20;12.00;;;6.00;99.90;;;;;;5111743;28;20035;-35
2023/02/11 01:03:01;;;;;;;21.17;12.05;;;6.00;99.90;;;;;;5112942;28;20520;-33
2023/02/11 01:05:27;;;;;;;18.88;12.02;;;6.00;99.90;;;;;;5111963;28;20024;-34
2023/02/11 01:07:53;;;;;;;17.17;10.68;;;6.30;99.90;;;;;;5113052;28;20023;-34
2023/02/11 01:10:19;;;;;;;17.45;11.05;;;6.50;99.90;;;;;;5112656;28;20331;-34
2023/02/11 01:12:44;;;;;;;18.27;11.00;;;6.60;99.90;;;;;;5113002;28;20495;-34
2023/02/11 01:15:15;;;;;;;16.70;10.50;;;6.70;99.90;;;;;;5113818;28;20109;-37
2023/02/11 01:17:40;;;;;;;19.48;10.90;;;6.60;99.90;;;;;;5113639;28;20027;-33
2023/02/11 01:20:10;;;;;;;18.25;10.95;;;6.60;99.90;;;;;;5113208;28;20036;-35
2023/02/11 01:22:38;;;;;;;15.52;9.93;;;6.50;99.90;;;;;;5111509;28;20394;-40
2023/02/11 01:25:05;;;;;;;17.77;10.57;;;6.40;99.90;;;;;;5112879;28;20034;-41
2023/02/11 01:27:31;;;;;;;19.00;11.30;;;6.30;99.90;;;;;;5112572;28;20066;-41
2023/02/11 01:29:57;;;;;;;17.00;11.07;;;6.30;99.90;;;;;;5113144;28;20454;-38
2023/02/11 01:32:22;;;;;;;17.45;10.32;;;6.20;99.90;;;;;;5112838;28;20027;-40
2023/02/11 01:34:48;;;;;;;17.63;11.02;;;6.20;99.90;;;;;;5113394;28;20028;-41
2023/02/11 01:37:14;;;;;;;18.15;10.95;;;6.10;99.90;;;;;;5112739;28;20024;-41
2023/02/11 01:39:40;;;;;;;17.67;10.77;;;6.10;99.90;;;;;;5111460;28;20038;-39
2023/02/11 01:42:06;;;;;;;16.83;9.90;;;6.10;99.90;;;;;;5112641;28;20031;-40
2023/02/11 01:44:38;;;;;;;16.73;10.65;;;6.10;99.90;;;;;;5112634;27;20394;-37
2023/02/11 01:47:05;;;;;;;19.35;11.27;;;6.00;99.90;;;;;;5111947;28;20019;-33
2023/02/11 01:49:35;;;;;;;18.63;11.38;;;6.00;99.90;;;;;;5112931;28;20020;-35
2023/02/11 01:52:09;;;;;;;16.65;10.15;;;6.00;99.90;;;;;;5112344;28;20032;-37
2023/02/11 01:57:29;;;;;;;16.42;9.82;;;6.00;99.90;;;;;;5112412;28;20096;-40
2023/02/11 01:59:58;;;;;;;15.65;10.23;;;6.00;99.90;;;;;;5112278;28;20034;-40
2023/02/11 02:02:51;;;;;;;15.95;10.25;;;5.90;99.90;;;;;;5112038;28;20035;-42
2023/02/11 02:05:28;;;;;;;20.83;10.43;;;6.00;99.90;;;;;;5107511;28;20035;-40
2023/02/11 02:08:10;;;;;;;17.48;10.25;;;6.20;99.90;;;;;;5111874;28;20094;-37
2023/02/11 02:10:41;;;;;;;17.15;10.40;;;6.50;99.90;;;;;;5110815;28;20019;-35
2023/02/11 02:13:07;;;;;;;16.80;10.15;;;6.60;99.90;;;;;;5112259;27;20020;-38
2023/02/11 02:15:36;;;;;;;15.38;9.50;;;6.60;99.90;;;;;;5111725;28;20469;-33
2023/02/11 02:18:16;;;;;;;17.55;9.73;;;6.60;99.90;;;;;;5111624;28;20055;-34
2023/02/11 02:21:00;;;;;;;16.17;9.85;;;6.50;99.90;;;;;;5112542;28;20553;-34
2023/02/11 02:23:34;;;;;;;17.52;9.57;;;6.40;99.90;;;;;;5111892;28;20032;-37
2023/02/11 02:26:15;;;;;;;15.75;10.00;;;6.30;99.90;;;;;;5112105;28;20028;-38
2023/02/11 02:29:08;;;;;;;16.90;10.60;;;6.20;99.90;;;;;;5111857;28;20016;-35
2023/02/11 02:32:15;;;;;;;18.23;10.55;;;6.20;99.90;;;;;;5112131;28;20028;-42
2023/02/11 02:34:57;;;;;;;17.80;10.50;;;6.10;99.90;;;;;;5068579;28;20032;-40
2023/02/11 02:37:32;;;;;;;16.70;10.00;;;6.10;99.90;;;;;;5068926;28;20032;-40
2023/02/11 02:40:03;;;;;;;14.63;9.93;;;6.00;99.90;;;;;;5096942;28;20038;-39
2023/02/11 02:42:30;;;;;;;18.17;10.25;;;6.00;99.90;;;;;;5112389;28;20542;-39
2023/02/11 02:44:57;;;;;;;18.95;10.68;;;6.00;99.90;;;;;;5111870;28;20031;-32
2023/02/11 02:47:23;;;;;;;17.95;10.48;;;6.00;99.90;;;;;;5111203;28;20486;-35
2023/02/11 02:49:48;;;;;;;14.43;9.32;;;5.90;99.90;;;;;;5112266;28;20103;-37
2023/02/11 02:52:55;;;;;;;14.68;9.75;;;5.90;99.90;;;;;;5115474;28;20023;-40
2023/02/11 02:55:48;;;;;;;15.35;9.88;;;5.90;99.90;;;;;;5115359;28;20062;-40
2023/02/11 02:58:34;;;;;;;16.90;10.40;;;5.90;99.90;;;;;;5115835;28;20374;-41
2023/02/11 03:01:20;;;;;;;17.67;9.82;;;5.90;99.90;;;;;;5115305;28;20043;-37
2023/02/11 03:04:02;;;;;;;14.35;9.35;;;5.90;99.90;;;;;;5115328;28;20374;-41
2023/02/11 03:06:28;;;;;;;16.98;9.38;;;6.00;99.90;;;;;;5115270;28;20024;-40
2023/02/11 03:09:07;;;;;;;16.67;9.73;;;6.30;99.90;;;;;;5114076;28;20038;-39
2023/02/11 03:11:35;;;;;;;16.23;9.73;;;6.50;99.90;;;;;;5115333;28;20035;-42
2023/02/11 03:14:03;;;;;;;16.27;9.95;;;6.60;99.90;;;;;;5115918;28;20024;-42
2023/02/11 03:16:34;;;;;;;17.33;9.48;;;6.60;99.90;;;;;;5114926;28;20031;-34
2023/02/11 03:19:14;;;;;;;17.42;9.60;;;6.60;99.90;;;;;;5115159;28;20030;-36
2023/02/11 03:21:42;;;;;;;17.23;9.73;;;6.50;99.90;;;;;;5114999;28;20038;-33
2023/02/11 03:24:18;;;;;;;15.35;10.00;;;6.40;99.90;;;;;;5114831;28;20096;-33
2023/02/11 03:26:50;;;;;;;17.05;10.35;;;6.30;99.90;;;;;;5115962;27;20103;-37
2023/02/11 03:29:39;;;;;;;16.08;9.68;;;6.30;99.90;;;;;;5115842;28;20114;-40
2023/02/11 03:32:24;;;;;;;16.70;9.77;;;6.20;99.90;;;;;;5114971;28;20024;-35
2023/02/11 03:35:04;;;;;;;15.90;9.57;;;6.10;99.90;;;;;;5114770;28;20016;-35
2023/02/11 03:37:44;;;;;;;16.42;9.68;;;6.10;99.90;;;;;;5114772;28;20034;-33
2023/02/11 03:40:15;;;;;;;15.23;9.10;;;6.00;99.90;;;;;;5115023;28;20034;-36
2023/02/11 03:42:53;;;;;;;14.90;8.77;;;6.00;99.90;;;;;;5115012;28;20043;-35
2023/02/11 03:45:22;;;;;;;13.40;9.02;;;5.90;99.90;;;;;;5114510;27;20508;-38
2023/02/11 03:47:52;;;;;;;17.63;9.82;;;6.00;99.90;;;;;;5114126;28;20470;-32
2023/02/11 03:50:20;;;;;;;15.85;10.27;;;5.90;99.90;;;;;;5114406;28;20054;-34
2023/02/11 03:52:48;;;;;;;11.60;8.32;;;5.90;99.90;;;;;;5114713;28;20059;-32
2023/02/11 03:55:17;;;;;;;17.77;9.88;;;5.90;99.90;;;;;;5115137;28;20028;-32
2023/02/11 03:57:43;;;;;;;15.57;9.40;;;5.80;99.90;;;;;;5114679;28;20451;-35
2023/02/11 04:00:09;;;;;;;14.35;9.27;;;5.90;99.90;;;;;;5114527;28;20119;-34
2023/02/11 04:02:36;;;;;;;15.07;9.23;;;5.80;99.90;;;;;;5113348;28;20027;-35
2023/02/11 04:05:06;;;;;;;14.90;9.85;;;5.90;99.90;;;;;;5114458;28;20448;-34
2023/02/11 04:07:32;;;;;;;18.00;10.73;;;6.10;99.90;;;;;;5114325;28;20088;-35
2023/02/11 04:09:58;;;;;;;15.77;10.23;;;6.40;99.90;;;;;;5114063;28;20045;-42
2023/02/11 04:12:24;;;;;;;15.50;9.38;;;6.50;99.90;;;;;;5114368;27;20036;-40
2023/02/11 04:14:50;;;;;;;16.50;8.90;;;6.60;99.90;;;;;;5113813;28;20059;-40
2023/02/11 04:17:15;;;;;;;18.05;9.98;;;6.50;99.90;;;;;;5113793;28;20036;-40
2023/02/11 04:19:41;;;;;;;15.57;9.88;;;6.50;99.90;;;;;;5113803;28;20032;-39
2023/02/11 04:22:07;;;;;;;18.05;10.35;;;6.40;99.90;;;;;;5113779;28;20054;-37
2023/02/11 04:24:33;;;;;;;15.05;9.43;;;6.30;99.90;;;;;;5113679;28;20469;-34
2023/02/11 04:26:59;;;;;;;13.27;8.38;;;6.30;99.90;;;;;;5113735;28;20024;-35
2023/02/11 04:29:27;;;;;;;15.25;9.60;;;6.20;99.90;;;;;;5114081;28;20402;-34
2023/02/11 04:31:52;;;;;;;13.80;9.15;;;6.10;99.90;;;;;;5112106;28;20031;-34
2023/02/11 04:34:18;;;;;;;16.17;9.73;;;6.10;99.90;;;;;;5113383;28;20024;-35
2023/02/11 04:36:44;;;;;;;14.63;9.35;;;6.00;99.90;;;;;;5113581;28;20051;-36
2023/02/11 04:39:09;;;;;;;16.15;9.13;;;6.00;99.90;;;;;;5113841;28;20038;-35
2023/02/11 04:41:35;;;;;;;15.00;9.30;;;6.00;99.90;;;;;;5113109;27;20036;-37
2023/02/11 04:44:01;;;;;;;17.20;9.90;;;6.00;99.90;;;;;;5113656;28;20089;-33
2023/02/11 04:46:26;;;;;;;14.43;8.88;;;6.00;99.90;;;;;;5113603;28;20444;-33
2023/02/11 04:48:52;;;;;;;14.68;8.93;;;5.90;99.90;;;;;;5113582;28;20026;-36
2023/02/11 04:51:18;;;;;;;15.90;9.18;;;5.90;99.90;;;;;;5113212;28;20032;-33
2023/02/11 04:53:43;;;;;;;14.77;9.27;;;5.90;99.90;;;;;;5113899;28;20103;-34
2023/02/11 04:56:09;;;;;;;15.77;9.30;;;5.90;99.90;;;;;;5113171;28;20028;-36
2023/02/11 04:58:34;;;;;;;15.07;8.90;;;5.90;99.90;;;;;;5113232;28;20032;-35
2023/02/11 05:01:11;;;;;;;15.10;9.50;;;5.80;99.90;;;;;;5112904;28;20035;-38
2023/02/11 05:03:38;;;;;;;15.90;9.23;;;5.80;99.90;;;;;;5113614;28;20027;-39
2023/02/11 05:06:04;;;;;;;15.07;9.38;;;6.00;99.90;;;;;;5112825;28;20020;-40
2023/02/11 05:08:29;;;;;;;13.43;9.20;;;6.20;99.90;;;;;;5112857;28;20020;-42
2023/02/11 05:10:55;;;;;;;14.50;8.63;;;6.40;99.90;;;;;;5112948;28;20481;-41
2023/02/11 05:13:21;;;;;;;14.57;8.60;;;6.50;99.90;;;;;;5112186;28;20032;-37
2023/02/11 05:15:47;;;;;;;13.63;8.75;;;6.60;99.90;;;;;;5112981;28;20469;-40
2023/02/11 05:18:15;;;;;;;13.90;8.60;;;6.50;99.90;;;;;;5112778;28;20385;-42
2023/02/11 05:20:42;;;;;;;15.57;9.23;;;6.50;99.90;;;;;;5112730;28;20292;-42
2023/02/11 05:23:08;;;;;;;13.70;8.32;;;6.40;99.90;;;;;;5113080;28;20024;-39
2023/02/11 05:25:34;;;;;;;15.07;8.90;;;6.40;99.90;;;;;;5112573;28;20057;-34
2023/02/11 05:28:00;;;;;;;14.32;8.85;;;6.30;99.90;;;;;;5112752;28;20028;-36
2023/02/11 05:30:26;;;;;;;16.02;9.25;;;6.30;99.90;;;;;;5112461;28;20016;-33
2023/02/11 05:32:51;;;;;;;12.63;8.35;;;6.20;99.90;;;;;;5112492;28;20027;-32
2023/02/11 05:35:17;;;;;;;13.82;8.70;;;6.20;99.90;;;;;;5113118;28;20305;-35
2023/02/11 05:37:43;;;;;;;13.65;8.40;;;6.10;99.90;;;;;;5112917;28;20072;-34
2023/02/11 05:40:09;;;;;;;14.68;8.77;;;6.10;99.90;;;;;;5112145;28;20024;-34
2023/02/11 05:42:34;;;;;;;16.20;8.98;;;6.10;99.90;;;;;;5112124;28;20031;-32
2023/02/11 05:45:00;;;;;;;12.88;8.45;;;6.00;99.90;;;;;;5112263;28;20115;-39
2023/02/11 05:47:26;;;;;;;12.55;7.82;;;6.00;99.90;;;;;;5112577;28;20051;-36
2023/02/11 05:49:53;;;;;;;12.35;7.82;;;6.00;99.90;;;;;;5112913;28;20024;-35
2023/02/11 05:52:19;;;;;;;14.10;8.55;;;6.00;99.90;;;;;;5112307;28;20028;-35
2023/02/11 05:54:45;;;;;;;13.20;8.27;;;5.90;99.90;;;;;;5112005;28;20402;-36
2023/02/11 05:57:10;;;;;;;12.18;7.97;;;5.90;99.90;;;;;;5111737;28;20028;-35
2023/02/11 05:59:36;;;;;;;12.18;7.78;;;5.90;99.90;;;;;;5112278;28;20032;-33
2023/02/11 06:02:02;;;;;;;14.23;8.65;;;6.00;99.90;;;;;;5110741;28;20027;-38
2023/02/11 06:04:28;;;;;;;12.32;8.38;;;6.00;99.90;;;;;;5112606;28;20020;-35
2023/02/11 06:06:53;;;;;;;13.55;8.30;;;6.20;99.90;;;;;;5112309;28;20030;-36
2023/02/11 06:09:19;;;;;;;12.10;7.95;;;6.40;99.90;;;;;;5112003;28;20366;-34
2023/02/11 06:11:44;;;;;;;14.32;8.13;;;6.60;99.90;;;;;;5111856;28;20035;-36
2023/02/11 06:14:10;;;;;;;11.80;7.78;;;6.60;99.90;;;;;;5112227;28;20031;-34
2023/02/11 06:16:36;;;;;;;11.80;7.57;;;6.60;99.90;;;;;;5111832;28;20024;-36
2023/02/11 06:19:02;;;;;;;12.57;7.75;;;6.60;99.90;;;;;;5112187;28;20047;-33
2023/02/11 06:21:27;;;;;;;12.98;7.80;;;6.50;99.90;;;;;;5110438;28;20045;-34
2023/02/11 06:23:53;;;;;;;13.48;8.57;;;6.50;99.90;;;;;;5110446;28;20538;-34
2023/02/11 06:26:22;;;;;;;12.98;8.02;;;6.40;99.90;;;;;;5111086;28;20032;-37
2023/02/11 06:28:48;;;;;;;11.38;8.13;;;6.40;99.90;;;;;;5110931;28;20019;-36
2023/02/11 06:31:14;;;;;;;12.63;7.95;;;6.30;99.90;;;;;;5111879;28;20370;-33
2023/02/11 06:33:40;;;;;;;11.88;7.65;;;6.30;99.90;;;;;;5112183;28;20054;-36
2023/02/11 06:36:15;;;;;;;12.43;8.00;;;6.20;99.90;;;;;;5111400;28;20042;-37
2023/02/11 06:38:41;;;;;;;11.50;7.97;;;6.20;99.90;;;;;;5111720;28;20034;-36
2023/02/11 06:41:09;;;;;;;12.20;8.18;;;6.10;99.90;;;;;;5109948;28;20028;-39
2023/02/11 06:43:35;;;;;;;12.52;7.53;;;6.10;99.90;;;;;;5111788;28;20026;-39
2023/02/11 06:46:00;;;;;;;14.00;8.05;;;6.10;99.90;;;;;;5111755;28;20028;-37
2023/02/11 06:48:26;;;;;;;11.65;7.80;;;6.10;99.90;;;;;;5111624;28;20481;-38
2023/02/11 06:50:52;;;;;;;14.95;8.77;;;6.10;99.90;;;;;;5112020;28;20019;-37
2023/02/11 06:53:17;;;;;;;10.60;7.00;;;6.00;99.90;;;;;;5112000;28;20035;-40
2023/02/11 06:55:43;;;;;;;13.70;8.30;;;6.00;99.90;;;;;;5111216;28;20043;-42
2023/02/11 06:58:09;;;;;;;11.77;7.72;;;6.00;99.90;;;;;;5111317;28;20028;-38
2023/02/11 07:00:36;;;;;;;12.25;7.80;;;6.00;99.90;;;;;;5112372;28;20027;-42
2023/02/11 07:03:02;;;;;;;12.60;8.35;;;6.00;99.90;;;;;;5111552;28;20040;-41
2023/02/11 07:05:28;;;;;;;10.60;7.32;;;6.10;99.90;;;;;;5111177;28;20070;-39
2023/02/11 07:07:53;;;;;;;11.07;7.05;;;6.30;99.90;;;;;;5111233;28;20030;-39
2023/02/11 07:10:19;;;;;;;10.75;7.55;;;6.50;99.90;;;;;;5111227;28;20015;-37
2023/02/11 07:12:45;;;;;;;11.95;7.45;;;6.60;99.90;;;;;;5110340;28;20038;-33
2023/02/11 07:15:11;;;;;;;11.68;7.80;;;6.60;99.90;;;;;;5111280;28;20448;-41
2023/02/11 07:17:38;;;;;;;11.02;7.60;;;6.60;99.90;;;;;;5111861;28;20039;-38
2023/02/11 07:20:04;;;;;;;13.05;8.02;;;6.60;99.90;;;;;;5109787;28;20027;-40
2023/02/11 07:22:30;;;;;;;12.38;7.60;;;6.50;99.90;;;;;;5111430;28;20076;-41
2023/02/11 07:24:55;;;;;;;12.23;7.95;;;6.50;99.90;;;;;;5111435;28;20060;-40
2023/02/11 07:27:21;;;;;;;11.73;7.80;;;6.40;99.90;;;;;;5111442;28;20485;-40
2023/02/11 07:29:47;;;;;;;10.93;7.20;;;6.40;99.90;;;;;;5111612;28;20019;-37
2023/02/11 07:32:13;;;;;;;10.95;7.18;;;6.30;99.90;;;;;;5111519;28;20022;-40
2023/02/11 07:34:38;;;;;;;12.73;8.05;;;6.30;99.90;;;;;;5111362;28;20035;-39
2023/02/11 07:37:04;;;;;;;12.98;7.97;;;6.20;99.90;;;;;;5111802;28;20028;-37
2023/02/11 07:39:30;;;;;;;13.07;8.00;;;6.20;99.90;;;;;;5114961;28;20034;-41
2023/02/11 07:41:55;;;;;;;13.25;7.93;;;6.10;99.90;;;;;;5114397;28;20031;-40
2023/02/11 07:44:21;;;;;;;12.32;7.85;;;6.10;99.90;;;;;;5114660;28;20034;-39
2023/02/11 07:46:48;;;;;;;13.80;7.68;;;6.10;99.90;;;;;;5114689;28;20020;-38
2023/02/11 07:49:14;;;;;;;12.18;8.38;;;6.10;99.90;;;;;;5114411;28;20023;-39
2023/02/11 07:51:40;;;;;;;12.60;8.48;;;6.10;99.90;;;;;;5114422;28;20078;-42
2023/02/11 07:54:06;;;;;;;13.27;8.38;;;6.00;99.90;;;;;;5114446;27;20055;-39
2023/02/11 07:56:32;;;;;;;14.20;8.60;;;6.00;99.90;;;;;;5113148;28;20043;-39
2023/02/11 07:59:02;;;;;;;13.25;7.95;;;6.00;99.90;;;;;;5114504;28;20552;-40
2023/02/11 08:01:28;;;;;;;11.73;7.35;;;6.00;99.90;;;;;;5114428;28;20080;-40
2023/02/11 08:03:59;;;;;;;11.13;7.70;;;6.00;99.90;;;;;;5114506;28;20031;-40
2023/02/11 08:06:27;;;;;;;11.60;7.65;;;6.00;99.90;;;;;;5114172;28;20415;-40
2023/02/11 08:08:53;;;;;;;12.13;7.50;;;6.00;99.90;;;;;;5114307;28;20121;-41
2023/02/11 08:11:21;;;;;;;12.82;7.90;;;6.00;99.90;;;;;;5114219;28;20486;-40
2023/02/11 08:13:47;;;;;;;12.18;8.25;;;6.00;99.90;;;;;;5114303;28;20020;-42
2023/02/11 08:16:20;;;;;;;13.35;8.15;;;6.00;99.90;;;;;;5113984;28;20473;-39
2023/02/11 08:18:45;;;;;;;11.77;7.97;;;6.00;99.90;;;;;;5114378;28;20405;-39
2023/02/11 08:21:11;;;;;;;13.77;7.97;;;6.00;99.90;;;;;;5113863;28;20031;-37
2023/02/11 08:23:39;;;;;;;10.68;7.35;;;6.00;99.90;;;;;;5113998;28;20482;-40
2023/02/11 08:26:14;;;;;;;11.48;8.00;;;6.00;99.90;;;;;;5113612;28;20030;-40
2023/02/11 08:28:42;;;;;;;12.32;7.82;;;6.00;99.90;;;;;;5114163;28;20380;-39
2023/02/11 08:31:22;;;;;;;14.45;7.72;;;6.00;99.90;;;;;;5114134;28;20036;-41
2023/02/11 08:33:48;;;;;;;11.90;7.78;;;5.90;99.90;;;;;;5114328;28;20042;-39
2023/02/11 08:36:16;;;;;;;12.52;8.15;;;5.90;99.90;;;;;;5114037;28;20469;-38
2023/02/11 08:38:44;;;;;;;10.45;7.20;;;5.90;99.90;;;;;;5114516;28;20445;-40
2023/02/11 08:41:10;;;;;;;12.27;7.90;;;6.00;99.90;;;;;;5112540;28;20015;-38
2023/02/11 08:43:40;;;;;;;11.80;7.40;;;5.90;99.90;;;;;;5115042;28;20050;-40
2023/02/11 08:46:06;;;;;;;11.20;7.72;;;6.00;99.90;;;;;;5113457;28;20447;-42
2023/02/11 08:48:32;;;;;;;13.05;8.13;;;6.00;99.90;;;;;;5113111;28;20020;-38
2023/02/11 08:50:57;;;;;;;11.27;7.43;;;6.00;99.90;;;;;;5112051;28;20103;-38
2023/02/11 08:53:24;;;;;;;11.52;7.43;;;6.00;99.90;;;;;;5113350;27;20023;-37
2023/02/11 08:55:51;;;;;;;11.63;7.03;;;6.00;99.90;;;;;;5113520;28;20020;-38
2023/02/11 08:58:18;;;;;;;10.45;7.53;;;6.00;99.90;;;;;;5113719;28;20135;-36
2023/02/11 09:00:44;;;;;;;11.45;7.43;;;6.00;99.90;;;;;;5113165;28;20513;-40
2023/02/11 09:03:11;;;;;;;10.73;7.38;;;6.00;99.90;;;;;;5113945;28;20030;-39
2023/02/11 09:05:49;;;;;;;12.25;7.50;;;6.10;99.90;;;;;;5112121;28;20024;-41
2023/02/11 09:08:15;;;;;;;11.23;7.22;;;6.10;99.90;;;;;;5112768;28;20106;-39
2023/02/11 09:10:41;;;;;;;11.05;6.93;;;6.00;99.90;;;;;;5113010;28;20023;-38
2023/02/11 09:13:08;;;;;;;10.90;7.35;;;6.00;99.90;;;;;;5111660;28;20030;-38
2023/02/11 09:15:34;;;;;;;12.38;7.68;;;6.00;99.90;;;;;;5112832;28;20031;-40
2023/02/11 09:18:00;;;;;;;12.27;7.93;;;6.10;99.90;;;;;;5112676;28;20481;-42
2023/02/11 09:20:26;;;;;;;10.10;6.95;;;6.00;99.90;;;;;;5114102;28;20034;-39
2023/02/11 09:22:53;;;;;;;12.05;7.68;;;6.10;99.90;;;;;;5113247;27;20076;-40
2023/02/11 09:25:20;;;;;;;12.77;7.10;;;6.10;99.90;;;;;;5111242;28;20084;-41
2023/02/11 09:27:47;;;;;;;13.90;7.10;;;6.10;99.90;;;;;;5112406;28;20092;-36
2023/02/11 09:30:13;;;;;;;12.05;6.90;;;6.10;99.90;;;;;;5112899;28;20031;-36
2023/02/11 09:32:38;;;;;;;11.43;7.38;;;6.20;99.90;;;;;;5112604;28;20027;-38
2023/02/11 09:35:04;;;;;;;12.07;6.88;;;6.10;99.90;;;;;;5112511;28;20474;-38
2023/02/11 09:37:30;;;;;;;39.22;17.90;;;6.20;99.90;;;;;;5111899;28;20035;-42
2023/02/11 09:39:55;;;;;;;25.35;14.52;;;6.20;99.90;;;;;;5112738;28;20425;-42
2023/02/11 09:42:44;;;;;;;25.13;13.70;;;6.30;99.90;;;;;;5112763;28;20028;-39
2023/02/11 09:45:29;;;;;;;24.02;13.93;;;6.40;99.90;;;;;;5112308;28;20038;-38
2023/02/11 09:48:11;;;;;;;22.58;13.07;;;6.50;99.90;;;;;;5112019;28;20493;-42
2023/02/11 09:50:43;;;;;;;21.80;12.88;;;6.60;99.90;;;;;;5113821;28;20023;-42
2023/02/11 09:53:21;;;;;;;22.70;13.05;;;6.70;99.90;;;;;;5114925;28;20019;-42
2023/02/11 09:55:54;;;;;;;18.67;12.18;;;6.80;99.90;;;;;;5110871;28;20251;-34
2023/02/11 09:58:33;;;;;;;20.27;12.95;;;6.80;99.90;;;;;;5112945;28;20028;-40
2023/02/11 10:01:26;;;;;;;20.02;10.90;;;6.90;99.90;;;;;;5112748;28;20081;-42
2023/02/11 10:03:58;;;;;;;20.23;12.23;;;6.90;99.90;;;;;;5114959;28;20028;-39
2023/02/11 10:06:38;;;;;;;17.90;11.18;;;7.00;99.90;;;;;;5111884;28;20024;-32
2023/02/11 10:09:38;;;;;;;23.63;11.55;;;7.00;99.90;;;;;;5112156;28;20020;-36
2023/02/11 10:12:15;;;;;;;18.80;10.57;;;7.00;99.90;;;;;;5112437;28;20031;-42
2023/02/11 10:14:59;;;;;;;18.45;11.27;;;7.10;99.90;;;;;;5111948;28;20026;-42
2023/02/11 10:17:39;;;;;;;19.02;11.05;;;7.10;99.90;;;;;;5111739;28;20381;-40
2023/02/11 10:20:11;;;;;;;18.63;11.02;;;7.10;99.90;;;;;;5112458;28;20090;-38
2023/02/11 10:22:48;;;;;;;18.60;10.85;;;7.10;99.90;;;;;;5111710;28;20489;-42
2023/02/11 10:25:25;;;;;;;17.58;10.25;;;7.10;99.90;;;;;;5113027;28;20031;-43
2023/02/11 10:27:51;;;;;;;14.95;9.65;;;7.20;99.90;;;;;;5110766;28;20110;-35
2023/02/11 10:30:51;;;;;;;17.85;10.35;;;7.20;99.90;;;;;;5112106;28;20019;-34
2023/02/11 10:33:28;;;;;;;16.13;9.95;;;7.20;99.90;;;;;;5111026;28;20081;-33
2023/02/11 10:35:54;;;;;;;15.63;9.82;;;7.20;99.90;;;;;;5112606;28;20063;-34
2023/02/11 10:38:20;;;;;;;18.85;9.77;;;7.30;99.90;;;;;;5111029;28;20031;-34
2023/02/11 10:40:46;;;;;;;16.92;10.15;;;7.30;99.90;;;;;;5111510;28;20032;-33
2023/02/11 10:43:15;;;;;;;15.57;9.32;;;7.30;99.90;;;;;;5111810;28;20027;-39
2023/02/11 10:45:48;;;;;;;15.20;9.23;;;7.30;99.90;;;;;;5111479;28;20155;-42
2023/02/11 10:48:36;;;;;;;15.32;9.98;;;7.30;99.90;;;;;;5112348;28;20066;-40
2023/02/11 10:51:16;;;;;;;14.85;8.60;;;7.40;99.90;;;;;;5111773;28;20019;-43
2023/02/11 10:53:43;;;;;;;15.50;8.90;;;7.40;99.90;;;;;;5112561;28;20532;-41
2023/02/11 10:56:13;;;;;;;13.65;8.43;;;7.40;99.90;;;;;;5111059;28;20058;-42
2023/02/11 10:58:53;;;;;;;12.20;8.27;;;7.40;99.90;;;;;;5111599;28;20411;-42
2023/02/11 11:01:20;;;;;;;14.27;8.75;;;7.40;99.90;;;;;;5111471;28;20092;-43
2023/02/11 11:03:51;;;;;;;12.15;8.15;;;7.40;99.90;;;;;;5111351;28;20035;-42
2023/02/11 11:06:32;;;;;;;13.07;8.02;;;7.40;99.90;;;;;;5111250;28;20020;-41
2023/02/11 11:08:57;;;;;;;13.40;8.45;;;7.40;99.90;;;;;;5111641;28;20027;-42
2023/02/11 11:11:24;;;;;;;14.68;8.27;;;7.40;99.90;;;;;;5113623;28;20027;-43
2023/02/11 11:13:52;;;;;;;14.25;8.45;;;7.40;99.90;;;;;;5115424;28;20019;-38
2023/02/11 11:16:31;;;;;;;12.68;8.48;;;7.50;99.90;;;;;;5115927;28;20024;-41
2023/02/11 11:19:05;;;;;;;13.98;8.50;;;7.40;99.90;;;;;;5116836;28;20424;-41
2023/02/11 11:21:43;;;;;;;13.23;7.82;;;7.40;99.90;;;;;;5115122;28;20026;-39
2023/02/11 11:24:17;;;;;;;11.38;7.45;;;7.40;99.90;;;;;;5115747;28;20614;-40
2023/02/11 11:26:49;;;;;;;11.73;7.47;;;7.50;99.90;;;;;;5116093;28;20323;-43
2023/02/11 11:29:17;;;;;;;10.95;7.40;;;7.50;99.90;;;;;;5114984;28;20030;-39
2023/02/11 11:31:53;;;;;;;10.40;6.82;;;7.50;99.90;;;;;;5114089;28;20034;-43
2023/02/11 11:34:32;;;;;;;12.82;7.50;;;7.50;99.90;;;;;;5115260;28;20031;-43
2023/02/11 11:36:59;;;;;;;12.88;6.97;;;7.50;99.90;;;;;;5114550;28;20457;-38
2023/02/11 11:39:31;;;;;;;9.75;6.10;;;7.50;99.90;;;;;;5113682;28;20106;-42
2023/02/11 11:42:04;;;;;;;11.90;6.53;;;7.60;99.90;;;;;;5114880;28;20091;-43
2023/02/11 11:44:35;;;;;;;10.80;6.80;;;7.60;99.90;;;;;;5114705;28;20083;-40
2023/02/11 11:47:22;;;;;;;10.02;6.65;;;7.60;99.90;;;;;;5114809;28;20031;-43
2023/02/11 11:50:10;;;;;;;11.25;6.68;;;7.60;99.90;;;;;;5114966;28;20020;-39
2023/02/11 11:53:04;;;;;;;9.90;6.28;;;7.60;99.90;;;;;;5115146;28;20081;-38
2023/02/11 11:55:41;;;;;;;8.48;5.85;;;7.60;99.90;;;;;;5114921;28;20102;-39
2023/02/11 11:58:17;;;;;;;11.13;6.03;;;7.70;99.90;;;;;;5115519;27;20055;-40
2023/02/11 12:01:07;;;;;;;10.18;6.38;;;7.70;99.90;;;;;;5113583;28;20059;-41
2023/02/11 12:03:36;;;;;;;9.65;6.60;;;7.70;99.90;;;;;;5115504;28;20516;-40
2023/02/11 12:06:10;;;;;;;11.45;5.88;;;7.70;99.90;;;;;;5113541;28;20018;-43
2023/02/11 12:08:59;;;;;;;;;;;7.70;99.90;;;;;;5115641;28;20107;-41
2023/02/11 12:11:31;;;;;;;9.90;5.25;;;7.70;99.90;;;;;;5114146;27;19927;-37
2023/02/11 12:14:18;;;;;;;8.45;5.57;;;7.80;99.90;;;;;;5114730;28;20076;-43
2023/02/11 12:17:13;;;;;;;9.10;5.70;;;7.70;99.90;;;;;;5114403;28;20050;-42
2023/02/11 12:19:38;;;;;;;;;;;7.80;99.90;;;;;;5115096;28;20115;-41
2023/02/11 12:22:27;;;;;;;7.82;4.85;;;7.80;99.90;;;;;;5114157;28;20010;-40
2023/02/11 12:25:03;;;;;;;9.15;5.20;;;7.80;99.90;;;;;;5113504;28;20293;-42
2023/02/11 12:27:44;;;;;;;8.45;5.30;;;7.80;99.90;;;;;;5113713;28;20069;-39
2023/02/11 12:30:20;;;;;;;9.82;5.53;;;7.80;99.90;;;;;;5113719;28;20485;-34
2023/02/11 12:33:07;;;;;;;8.45;5.47;;;7.80;99.90;;;;;;5114605;28;20106;-34
2023/02/11 12:35:38;;;;;;;8.80;5.55;;;7.80;99.90;;;;;;5114569;28;20435;-33
2023/02/11 12:38:31;;;;;;;8.98;5.40;;;7.80;99.90;;;;;;5113926;28;20036;-37
2023/02/11 12:44:29;;;;;;;9.07;5.55;;;7.80;99.90;;;;;;5113840;28;20034;-38
2023/02/11 12:47:01;;;;;;;;;;;7.80;99.90;;;;;;5114437;28;20020;-34
2023/02/11 12:49:45;;;;;;;8.05;4.88;;;7.80;99.90;;;;;;5114382;28;19931;-33
2023/02/11 12:52:48;;;;;;;8.45;4.68;;;7.90;99.90;;;;;;5114419;28;20028;-39
2023/02/11 12:55:28;;;;;;;7.63;4.75;;;7.90;99.90;;;;;;5113901;28;20081;-36
2023/02/11 12:57:56;;;;;;;11.55;5.82;;;7.90;99.90;;;;;;5113017;27;20019;-36
2023/02/11 13:00:33;;;;;;;11.25;6.30;;;7.90;99.90;;;;;;5113296;28;20114;-32
2023/02/11 13:03:15;;;;;;;9.73;6.45;;;8.00;99.90;;;;;;5112857;28;20020;-35
2023/02/11 13:05:54;;;;;;;9.00;5.93;;;8.00;99.90;;;;;;5113162;28;20516;-35
2023/02/11 13:08:47;;;;;;;9.80;6.47;;;8.00;99.90;;;;;;5113833;28;20401;-34
2023/02/11 13:11:38;;;;;;;9.23;5.60;;;8.00;99.90;;;;;;5113076;28;20028;-34